weather.gov     
National Weather Service

Terminal Aerodrome Forecast
NWS Homepage
This page is being discontinued on March 12, 2014.
The same data is available at this site. Please update your bookmarks.
Thank you, and we apologize for the inconvenience.
Please send an email to SR-SRH.Webmaster@noaa.gov with any concerns.


Current Version
Previous Version:    01  02  03  04  05  06  07  08  09  10  11  12  13  14  15  16  17  18  19  20  21  22  23  24  25  26  27  28  29  30  
   31  32  33  34  35  36  37  
[Printable]
965
FTUS42 KTBW 251700 RRA
TAFPGD
TAF
KPGD 251750Z 2518/2618 18012KT P6SM VCSH FEW020 OVC060
     FM252100 19014KT P6SM VCSH SCT005 BKN045
     FM260000 19009KT 6SM -RA VCTS SCT015CB OVC050
     FM260700 23014KT 5SM -RA BR OVC015
     FM261100 32017G27KT 4SM -RA BR SCT005 BKN015 OVC040
     FM261400 34015G25KT P6SM -RA SCT010 OVC060=


U.S. Dept. of Commerce
NOAA National Weather Service
1325 East West Highway
Silver Spring, MD 20910
E-mail: w-nws.webmaster@noaa.gov
Page last modified: May 16, 2007
NATIONAL WEATHER SERVICE: for Safety, for Work, for Fun - FOR LIFE